Time;durP1;ratioP1;P1;durP2;ratioP2;P2;SDS_P1;SDS_P2;PMS_P1;PMS_P2;Temp;Humidity;BMP_temperature;BMP_pressure;BME280_temperature;BME280_humidity;BME280_pressure;Samples;Min_cycle;Max_cycle;Signal;HPM_P1;HPM_P2
2021/11/18 00:00:26;;;;;;;61.93;35.93;;;6.10;99.90;;;;;;5014883;28;20385;-89
2021/11/18 00:02:54;;;;;;;64.10;37.30;;;6.10;99.90;;;;;;5016094;28;20385;-87
2021/11/18 00:05:24;;;;;;;62.65;35.33;;;6.10;99.90;;;;;;5014804;28;20393;-86
2021/11/18 00:07:52;;;;;;;60.15;35.42;;;6.10;99.90;;;;;;5013052;28;20420;-86
2021/11/18 00:10:27;;;;;;;60.65;34.65;;;6.10;99.90;;;;;;5013165;28;20453;-89
2021/11/18 00:12:55;;;;;;;62.15;35.10;;;6.10;99.90;;;;;;5031774;28;20479;-87
2021/11/18 00:15:25;;;;;;;58.27;34.60;;;6.00;99.90;;;;;;5018120;28;20401;-86
2021/11/18 00:17:54;;;;;;;56.33;33.73;;;6.00;99.90;;;;;;5018393;28;20467;-85
2021/11/18 00:20:20;;;;;;;57.83;33.67;;;6.00;99.90;;;;;;5014455;28;20386;-89
2021/11/18 00:22:46;;;;;;;66.00;35.83;;;5.90;99.90;;;;;;5014025;28;20467;-88
2021/11/18 00:25:14;;;;;;;59.33;33.75;;;5.80;99.90;;;;;;5015381;28;20397;-88
2021/11/18 00:27:40;;;;;;;62.60;35.17;;;5.90;99.90;;;;;;5013835;28;20393;-88
2021/11/18 00:30:09;;;;;;;64.80;35.00;;;5.80;99.90;;;;;;5015359;28;20435;-88
2021/11/18 00:32:35;;;;;;;61.60;35.28;;;5.80;99.90;;;;;;5014986;28;20389;-87
2021/11/18 00:35:03;;;;;;;62.83;35.27;;;5.70;99.90;;;;;;5018787;28;20461;-90
2021/11/18 00:37:28;;;;;;;69.32;35.88;;;5.70;99.90;;;;;;5014218;28;20425;-87
2021/11/18 00:39:54;;;;;;;64.73;35.13;;;5.70;99.90;;;;;;5033752;28;20373;-87
2021/11/18 00:42:20;;;;;;;58.03;33.37;;;5.70;99.90;;;;;;5016194;28;20391;-86
2021/11/18 00:44:45;;;;;;;65.07;34.63;;;5.70;99.90;;;;;;5016678;28;20890;-87
2021/11/18 00:47:11;;;;;;;59.50;34.05;;;5.60;99.90;;;;;;5016338;28;20484;-87
2021/11/18 00:49:37;;;;;;;65.90;33.78;;;5.60;99.90;;;;;;5034432;28;20385;-87
2021/11/18 00:52:03;;;;;;;69.17;34.27;;;5.70;99.90;;;;;;5015652;28;20401;-85
2021/11/18 00:54:29;;;;;;;61.92;34.40;;;5.60;99.90;;;;;;5023967;28;20401;-83
2021/11/18 00:56:57;;;;;;;62.33;33.20;;;5.50;99.90;;;;;;5025781;28;20413;-88
2021/11/18 00:59:22;;;;;;;66.07;33.63;;;5.60;99.90;;;;;;5016041;28;20406;-85
2021/11/18 01:01:50;;;;;;;63.45;33.00;;;5.40;99.90;;;;;;5017019;28;20392;-87
2021/11/18 01:04:19;;;;;;;59.53;31.95;;;5.40;99.90;;;;;;5013831;28;20413;-90
2021/11/18 01:06:45;;;;;;;57.83;32.72;;;5.50;99.90;;;;;;5019594;28;20397;-87
2021/11/18 01:09:11;;;;;;;63.30;33.60;;;5.50;99.90;;;;;;5015126;28;20406;-87
2021/11/18 01:11:37;;;;;;;62.30;31.65;;;5.50;99.90;;;;;;5037832;28;20393;-86
2021/11/18 01:14:06;;;;;;;61.17;32.25;;;5.50;99.90;;;;;;5034951;28;20382;-85
2021/11/18 01:16:34;;;;;;;56.43;29.80;;;5.50;99.90;;;;;;5016706;28;20455;-86
2021/11/18 01:19:00;;;;;;;56.80;31.83;;;5.50;99.90;;;;;;5019166;28;20407;-88
2021/11/18 01:21:29;;;;;;;60.77;31.20;;;5.40;99.90;;;;;;5020121;28;20385;-85
2021/11/18 01:23:55;;;;;;;58.53;30.17;;;5.40;99.90;;;;;;5020377;28;20690;-86
2021/11/18 01:26:21;;;;;;;61.70;31.85;;;5.40;99.90;;;;;;5018614;28;20404;-89
2021/11/18 01:28:48;;;;;;;56.95;30.17;;;5.40;99.90;;;;;;5019941;28;20394;-85
2021/11/18 01:31:16;;;;;;;59.63;30.45;;;5.40;99.90;;;;;;5017428;28;20409;-89
2021/11/18 01:33:42;;;;;;;55.72;30.88;;;5.40;99.90;;;;;;5036620;28;20476;-88
2021/11/18 01:36:09;;;;;;;57.92;30.63;;;5.40;99.90;;;;;;5036258;28;20480;-84
2021/11/18 01:38:35;;;;;;;61.28;31.25;;;5.40;99.90;;;;;;5034875;28;20439;-88
2021/11/18 01:41:07;;;;;;;63.17;30.90;;;5.40;99.90;;;;;;5018553;28;20447;-91
2021/11/18 01:43:38;;;;;;;60.57;29.90;;;5.40;99.90;;;;;;5034647;28;20440;-86
2021/11/18 01:46:06;;;;;;;56.90;30.58;;;5.40;99.90;;;;;;5018796;28;20396;-86
2021/11/18 01:48:32;;;;;;;57.85;30.15;;;5.50;99.90;;;;;;5019248;28;20891;-86
2021/11/18 01:50:58;;;;;;;59.30;30.30;;;5.50;99.90;;;;;;5018785;28;20435;-86
2021/11/18 01:53:35;;;;;;;57.63;28.50;;;5.50;99.90;;;;;;5016443;28;20439;-88
2021/11/18 01:56:01;;;;;;;59.20;27.67;;;5.60;99.90;;;;;;5020051;28;20390;-87
2021/11/18 01:58:31;;;;;;;62.88;30.13;;;5.60;99.90;;;;;;5020251;28;20409;-88
2021/11/18 02:00:59;;;;;;;56.58;29.30;;;5.70;99.90;;;;;;5019295;28;20385;-88
2021/11/18 02:03:25;;;;;;;57.10;28.73;;;5.70;99.90;;;;;;5016425;28;20534;-87
2021/11/18 02:05:59;;;;;;;57.30;29.17;;;5.80;99.90;;;;;;5018152;28;20385;-86
2021/11/18 02:08:25;;;;;;;52.38;28.85;;;5.90;99.90;;;;;;5034913;28;20389;-91
2021/11/18 02:11:01;;;;;;;54.92;28.88;;;6.00;99.90;;;;;;5017390;28;20390;-92
2021/11/18 02:13:26;;;;;;;60.13;28.52;;;6.10;99.90;;;;;;5019385;28;20386;-85
2021/11/18 02:15:55;;;;;;;53.95;28.23;;;6.10;99.90;;;;;;5019593;28;20404;-88
2021/11/18 02:18:31;;;;;;;50.33;26.30;;;6.10;99.90;;;;;;5015847;28;20409;-86
2021/11/18 02:21:03;;;;;;;49.83;26.50;;;6.10;99.90;;;;;;5017924;28;20393;-87
2021/11/18 02:23:32;;;;;;;52.15;25.95;;;6.10;99.90;;;;;;5017674;28;20465;-87
2021/11/18 02:25:58;;;;;;;50.07;26.37;;;6.10;99.90;;;;;;5015714;28;20896;-88
2021/11/18 02:28:27;;;;;;;48.30;26.25;;;6.00;99.90;;;;;;5017780;28;20401;-90
2021/11/18 02:30:56;;;;;;;52.75;25.48;;;6.00;99.90;;;;;;5015687;28;20384;-92
2021/11/18 02:33:23;;;;;;;50.17;26.10;;;6.00;99.90;;;;;;5034063;28;20382;-87
2021/11/18 02:35:50;;;;;;;47.50;25.52;;;6.00;99.90;;;;;;5017293;28;20397;-90
2021/11/18 02:38:17;;;;;;;52.42;25.92;;;6.10;99.90;;;;;;5015544;28;20409;-89
2021/11/18 02:40:44;;;;;;;51.35;26.05;;;6.10;99.90;;;;;;5015019;28;20397;-93
2021/11/18 02:43:17;;;;;;;49.35;25.05;;;6.20;99.90;;;;;;5017031;28;20461;-88
2021/11/18 02:45:46;;;;;;;51.25;26.35;;;6.20;99.90;;;;;;5015615;28;20394;-90
2021/11/18 02:48:12;;;;;;;51.97;25.60;;;6.20;99.90;;;;;;5015066;28;20386;-89
2021/11/18 02:50:41;;;;;;;50.05;25.08;;;6.20;99.90;;;;;;5017276;28;20385;-87
2021/11/18 02:53:08;;;;;;;47.75;26.40;;;6.20;99.90;;;;;;5015940;28;20401;-89
2021/11/18 02:55:38;;;;;;;46.55;24.88;;;6.20;99.90;;;;;;5036190;28;20389;-88
2021/11/18 02:58:04;;;;;;;51.85;26.05;;;6.30;99.90;;;;;;5018063;28;20461;-91
2021/11/18 03:00:42;;;;;;;47.73;25.53;;;6.30;99.90;;;;;;5014221;28;20381;-88
2021/11/18 03:03:07;;;;;;;49.17;25.08;;;6.40;99.90;;;;;;5015271;28;20389;-86
2021/11/18 03:05:33;;;;;;;51.45;25.52;;;6.40;99.90;;;;;;5014688;28;20461;-89
2021/11/18 03:07:59;;;;;;;56.88;25.83;;;6.30;99.90;;;;;;5016909;28;20434;-89
2021/11/18 03:10:26;;;;;;;49.22;24.60;;;6.30;99.90;;;;;;5014069;28;20436;-88
2021/11/18 03:12:52;;;;;;;51.17;25.37;;;6.30;99.90;;;;;;5014697;28;20464;-89
2021/11/18 03:15:20;;;;;;;48.57;24.33;;;6.30;99.90;;;;;;5032112;28;20384;-88
2021/11/18 03:17:47;;;;;;;48.40;23.52;;;6.30;99.90;;;;;;5014938;28;20446;-88
2021/11/18 03:20:15;;;;;;;43.70;23.85;;;6.30;99.90;;;;;;5038211;28;20389;-87
2021/11/18 03:22:41;;;;;;;48.93;23.50;;;6.30;99.90;;;;;;5017186;28;20397;-87
2021/11/18 03:25:09;;;;;;;48.10;24.55;;;6.20;99.90;;;;;;5015285;28;20398;-88
2021/11/18 03:27:36;;;;;;;52.72;25.20;;;6.10;99.90;;;;;;5014415;28;20389;-87
2021/11/18 03:30:05;;;;;;;45.55;23.77;;;6.10;99.90;;;;;;5019540;28;20477;-87
2021/11/18 03:32:31;;;;;;;53.67;24.77;;;6.10;99.90;;;;;;5015597;28;20385;-92
2021/11/18 03:34:56;;;;;;;50.22;25.08;;;6.10;99.90;;;;;;5031167;28;20377;-89
2021/11/18 03:37:22;;;;;;;47.57;24.17;;;6.10;99.90;;;;;;5014120;28;20840;-90
2021/11/18 03:39:48;;;;;;;47.83;24.33;;;6.20;99.90;;;;;;5014699;28;20404;-88
2021/11/18 03:42:13;;;;;;;53.42;25.10;;;6.30;99.90;;;;;;5015077;28;20886;-89
2021/11/18 03:44:39;;;;;;;54.03;24.45;;;6.20;99.90;;;;;;5016189;28;20471;-90
2021/11/18 03:47:08;;;;;;;47.47;23.08;;;6.20;99.90;;;;;;5017080;28;20397;-87
2021/11/18 03:49:35;;;;;;;43.97;23.25;;;6.20;99.90;;;;;;5015907;28;20392;-92
2021/11/18 03:52:02;;;;;;;45.63;22.33;;;6.20;99.90;;;;;;5015182;28;20854;-87
2021/11/18 03:54:31;;;;;;;45.03;22.83;;;6.20;99.90;;;;;;4994140;28;20886;-90
2021/11/18 03:56:57;;;;;;;46.97;23.20;;;6.20;99.90;;;;;;4997381;28;20407;-86
2021/11/18 03:59:26;;;;;;;53.55;23.95;;;6.10;99.90;;;;;;5014259;28;20930;-92
2021/11/18 04:01:53;;;;;;;51.13;23.80;;;6.10;99.90;;;;;;5031231;28;20397;-88
2021/11/18 04:04:23;;;;;;;47.30;23.45;;;6.10;99.90;;;;;;5013974;28;20378;-86
2021/11/18 04:06:49;;;;;;;48.08;23.65;;;6.10;99.90;;;;;;5014179;28;20378;-89
2021/11/18 04:09:16;;;;;;;49.38;23.52;;;6.10;99.90;;;;;;5013879;28;20417;-88
2021/11/18 04:11:44;;;;;;;50.00;22.67;;;6.10;99.90;;;;;;5012873;28;20894;-88
2021/11/18 04:14:11;;;;;;;51.43;23.37;;;6.00;99.90;;;;;;5014641;28;20456;-88
2021/11/18 04:16:38;;;;;;;45.50;22.63;;;6.10;99.90;;;;;;5015890;28;20381;-88
2021/11/18 04:19:04;;;;;;;50.15;23.65;;;6.10;99.90;;;;;;5012652;28;20400;-90
2021/11/18 04:21:32;;;;;;;50.00;23.03;;;6.10;99.90;;;;;;5014709;28;20378;-89
2021/11/18 04:24:00;;;;;;;46.28;23.88;;;6.20;99.90;;;;;;5013247;28;20961;-88
2021/11/18 04:26:25;;;;;;;49.90;23.75;;;6.20;99.90;;;;;;5014289;28;20456;-85
2021/11/18 04:28:51;;;;;;;46.47;23.08;;;6.20;99.90;;;;;;5013480;28;20389;-86
2021/11/18 04:31:18;;;;;;;43.55;22.38;;;6.20;99.90;;;;;;5014420;28;20397;-86
2021/11/18 04:33:44;;;;;;;49.05;22.73;;;6.20;99.90;;;;;;5014365;28;20378;-88
2021/11/18 04:36:12;;;;;;;48.80;22.95;;;6.10;99.90;;;;;;5014299;28;20390;-87
2021/11/18 04:38:38;;;;;;;53.92;23.55;;;6.10;99.90;;;;;;5028455;28;20413;-87
2021/11/18 04:41:06;;;;;;;56.40;23.98;;;6.10;99.90;;;;;;5013844;28;20455;-83
2021/11/18 04:43:32;;;;;;;47.90;22.75;;;6.10;99.90;;;;;;5016708;28;20457;-85
2021/11/18 04:45:58;;;;;;;50.33;22.63;;;6.10;99.90;;;;;;5018717;28;20433;-87
2021/11/18 04:48:23;;;;;;;47.50;23.73;;;6.10;99.90;;;;;;5015011;28;20393;-87
2021/11/18 04:50:50;;;;;;;51.65;23.80;;;6.10;99.90;;;;;;5032332;28;20393;-87
2021/11/18 04:53:16;;;;;;;48.58;23.60;;;6.10;99.90;;;;;;5015557;28;20393;-87
2021/11/18 04:55:44;;;;;;;49.08;22.08;;;6.10;99.90;;;;;;5014544;28;20377;-89
2021/11/18 04:58:11;;;;;;;46.25;22.25;;;6.10;99.90;;;;;;5013149;28;20760;-87
2021/11/18 05:00:45;;;;;;;47.15;22.90;;;6.00;99.90;;;;;;5013232;28;20402;-86
2021/11/18 05:03:11;;;;;;;47.75;23.45;;;6.00;99.90;;;;;;5013131;28;20425;-86
2021/11/18 05:05:37;;;;;;;47.40;22.90;;;5.90;99.90;;;;;;5012919;28;20373;-90
2021/11/18 05:08:03;;;;;;;51.42;22.52;;;6.00;99.90;;;;;;5014427;28;20377;-87
2021/11/18 05:10:29;;;;;;;47.15;22.40;;;5.90;99.90;;;;;;5014156;28;20748;-87
2021/11/18 05:12:56;;;;;;;46.03;21.58;;;5.90;99.90;;;;;;5012449;28;20386;-88
2021/11/18 05:15:25;;;;;;;51.28;23.00;;;5.90;99.90;;;;;;5012055;28;21053;-92
2021/11/18 05:17:51;;;;;;;47.40;23.02;;;5.90;99.90;;;;;;5014065;28;20397;-91
2021/11/18 05:20:18;;;;;;;48.17;23.00;;;5.90;99.90;;;;;;5013328;28;20392;-89
2021/11/18 05:22:47;;;;;;;42.00;22.77;;;5.90;99.90;;;;;;5015601;28;20400;-87
2021/11/18 05:25:13;;;;;;;47.20;22.17;;;5.90;99.90;;;;;;5018234;28;20427;-86
2021/11/18 05:27:39;;;;;;;46.20;21.58;;;5.90;99.90;;;;;;5018196;28;20524;-86
2021/11/18 05:30:07;;;;;;;47.80;21.73;;;5.90;99.90;;;;;;5037849;28;20397;-87
2021/11/18 05:32:33;;;;;;;41.67;20.20;;;5.90;99.90;;;;;;5018867;28;20382;-87
2021/11/18 05:34:59;;;;;;;45.78;20.80;;;5.90;99.90;;;;;;5036796;28;20376;-89
2021/11/18 05:37:26;;;;;;;45.67;21.85;;;5.80;99.90;;;;;;5017319;28;20413;-86
2021/11/18 05:39:53;;;;;;;47.67;21.45;;;5.80;99.90;;;;;;5019126;28;20405;-87
2021/11/18 05:42:19;;;;;;;51.25;21.73;;;5.80;99.90;;;;;;5018815;28;20401;-86
2021/11/18 05:44:48;;;;;;;50.08;22.50;;;5.70;99.90;;;;;;5019314;28;20413;-88
2021/11/18 05:47:14;;;;;;;48.47;21.90;;;5.70;99.90;;;;;;5018693;28;20941;-89
2021/11/18 05:49:40;;;;;;;49.20;21.60;;;5.60;99.90;;;;;;5018931;28;20381;-88
2021/11/18 05:52:06;;;;;;;47.20;21.67;;;5.60;99.90;;;;;;5021808;28;20439;-87
2021/11/18 05:54:31;;;;;;;51.47;21.67;;;5.60;99.90;;;;;;5017568;28;20417;-89
2021/11/18 05:56:57;;;;;;;48.63;21.83;;;5.60;99.90;;;;;;5034600;28;20422;-91
2021/11/18 05:59:23;;;;;;;50.15;23.95;;;5.60;99.90;;;;;;5038079;28;20436;-86
2021/11/18 06:01:48;;;;;;;43.53;20.30;;;5.60;99.90;;;;;;5025588;28;20383;-87
2021/11/18 06:04:14;;;;;;;47.43;20.50;;;5.70;99.90;;;;;;5046551;28;20384;-88
2021/11/18 06:06:40;;;;;;;43.03;19.80;;;5.70;99.90;;;;;;5034755;28;20400;-91
2021/11/18 06:09:06;;;;;;;48.23;19.57;;;5.70;99.90;;;;;;5016144;28;20477;-86
2021/11/18 06:11:34;;;;;;;40.27;19.77;;;5.60;99.90;;;;;;5015579;28;20910;-86
2021/11/18 06:14:00;;;;;;;49.65;20.27;;;5.50;99.90;;;;;;5019961;28;20374;-89
2021/11/18 06:16:27;;;;;;;39.88;18.38;;;5.50;99.90;;;;;;5020517;28;20419;-90
2021/11/18 06:18:54;;;;;;;46.53;19.77;;;5.40;99.90;;;;;;5019108;28;21041;-88
2021/11/18 06:21:22;;;;;;;48.70;20.13;;;5.50;99.90;;;;;;5036522;28;20392;-87
2021/11/18 06:23:47;;;;;;;45.50;19.00;;;5.50;99.90;;;;;;5016785;28;20393;-86
2021/11/18 06:26:14;;;;;;;44.35;18.55;;;5.50;99.90;;;;;;5018373;28;20401;-88
2021/11/18 06:28:41;;;;;;;42.08;19.70;;;5.50;99.90;;;;;;5017397;28;20394;-91
2021/11/18 06:31:10;;;;;;;49.08;20.00;;;5.50;99.90;;;;;;5033574;28;20384;-87
2021/11/18 06:33:36;;;;;;;38.50;19.25;;;5.50;99.90;;;;;;5031367;28;20390;-89
2021/11/18 06:36:03;;;;;;;47.70;24.52;;;5.50;99.90;;;;;;5015305;28;20407;-91
2021/11/18 06:38:28;;;;;;;49.80;24.00;;;5.60;99.90;;;;;;5031366;28;20831;-91
2021/11/18 06:40:55;;;;;;;46.00;22.20;;;5.50;99.90;;;;;;5032557;28;20385;-88
2021/11/18 06:43:22;;;;;;;47.70;19.70;;;5.60;99.90;;;;;;5014553;28;20863;-87
2021/11/18 06:45:49;;;;;;;43.78;19.83;;;5.50;99.90;;;;;;5016043;28;20871;-88
2021/11/18 06:48:17;;;;;;;40.20;19.17;;;5.50;99.90;;;;;;5033598;28;20413;-89
2021/11/18 06:50:44;;;;;;;41.42;19.33;;;5.60;99.90;;;;;;5016330;28;20444;-88
2021/11/18 06:53:11;;;;;;;42.28;18.73;;;5.60;99.90;;;;;;5016421;28;20393;-89
2021/11/18 06:55:37;;;;;;;44.97;19.35;;;5.60;99.90;;;;;;5015745;28;20879;-86
2021/11/18 06:58:03;;;;;;;49.63;19.33;;;5.60;99.90;;;;;;5032899;28;20401;-88
2021/11/18 07:00:28;;;;;;;38.05;17.60;;;5.60;99.90;;;;;;5030676;28;20386;-90
2021/11/18 07:02:54;;;;;;;39.38;18.17;;;5.70;99.90;;;;;;5034087;28;20392;-87
2021/11/18 07:05:21;;;;;;;48.50;18.63;;;5.70;99.90;;;;;;5016118;28;20436;-87
2021/11/18 07:07:46;;;;;;;37.90;16.75;;;5.80;99.90;;;;;;5034620;28;20744;-88
2021/11/18 07:10:13;;;;;;;37.80;17.70;;;5.90;99.90;;;;;;5016364;28;20404;-89
2021/11/18 07:12:39;;;;;;;39.17;17.10;;;5.80;99.90;;;;;;5015848;28;20441;-90
2021/11/18 07:15:10;;;;;;;44.28;18.08;;;5.90;99.90;;;;;;5031893;28;20429;-89
2021/11/18 07:17:36;;;;;;;40.28;17.42;;;6.00;99.90;;;;;;5023897;28;20420;-88
2021/11/18 07:20:05;;;;;;;42.33;17.33;;;6.10;99.90;;;;;;5015805;28;20381;-88
2021/11/18 07:22:31;;;;;;;35.57;16.20;;;6.20;99.90;;;;;;5015726;28;20451;-90
2021/11/18 07:24:57;;;;;;;35.90;16.60;;;6.20;99.90;;;;;;5020414;28;20381;-91
2021/11/18 07:27:23;;;;;;;41.63;16.95;;;6.40;99.90;;;;;;5031316;28;20421;-85
2021/11/18 07:29:49;;;;;;;34.90;16.27;;;6.50;99.90;;;;;;5015600;28;20812;-86
2021/11/18 07:32:15;;;;;;;38.33;16.52;;;6.60;99.90;;;;;;5032648;28;20403;-87
2021/11/18 07:34:41;;;;;;;34.75;14.73;;;6.60;99.90;;;;;;4999368;28;20472;-89
2021/11/18 07:37:10;;;;;;;32.30;16.27;;;6.70;99.90;;;;;;5014894;28;20432;-88
2021/11/18 07:39:35;;;;;;;33.95;15.63;;;6.80;99.90;;;;;;5014711;28;20396;-89
2021/11/18 07:42:01;;;;;;;34.43;16.00;;;6.90;99.90;;;;;;5032092;28;20740;-86
2021/11/18 07:44:27;;;;;;;32.67;14.73;;;7.10;99.90;;;;;;5014889;28;20393;-89
2021/11/18 07:46:52;;;;;;;29.95;13.50;;;7.10;99.90;;;;;;5015014;28;20469;-91
2021/11/18 07:49:18;;;;;;;30.55;14.07;;;7.20;99.90;;;;;;5017323;28;20493;-88
2021/11/18 07:51:44;;;;;;;30.75;14.15;;;7.40;99.90;;;;;;5015157;28;20421;-90
2021/11/18 07:54:15;;;;;;;31.33;13.48;;;7.40;99.90;;;;;;5014890;28;20752;-89
2021/11/18 07:56:41;;;;;;;32.38;12.77;;;7.50;99.90;;;;;;5031631;28;20392;-90
2021/11/18 07:59:08;;;;;;;32.20;13.60;;;7.50;99.90;;;;;;5016423;28;20413;-88
2021/11/18 08:01:37;;;;;;;28.25;13.43;;;7.50;99.90;;;;;;5016053;28;20397;-89
2021/11/18 08:04:08;;;;;;;32.30;13.65;;;7.60;99.90;;;;;;5012840;28;20423;-90
2021/11/18 08:06:34;;;;;;;30.30;13.30;;;7.60;99.90;;;;;;5031734;28;20381;-88
2021/11/18 08:08:59;;;;;;;34.60;13.23;;;7.60;99.90;;;;;;5011360;28;20903;-87
2021/11/18 08:11:29;;;;;;;35.78;13.98;;;7.70;99.90;;;;;;5012893;28;20748;-88
2021/11/18 08:13:56;;;;;;;32.67;13.50;;;7.70;99.90;;;;;;5033565;28;20386;-87
2021/11/18 08:16:24;;;;;;;34.50;13.68;;;7.80;99.90;;;;;;5030172;28;20416;-89
2021/11/18 08:18:49;;;;;;;31.52;13.80;;;7.90;99.90;;;;;;5015268;28;20405;-89
2021/11/18 08:21:15;;;;;;;29.23;13.10;;;8.00;99.90;;;;;;5013857;28;20439;-90
2021/11/18 08:23:42;;;;;;;37.40;14.10;;;8.10;99.90;;;;;;5012631;28;20390;-88
2021/11/18 08:26:10;;;;;;;38.22;13.63;;;8.10;99.90;;;;;;5029366;28;20492;-89
2021/11/18 08:28:36;;;;;;;37.30;14.25;;;8.10;99.90;;;;;;4995272;28;20927;-88
2021/11/18 08:31:02;;;;;;;35.40;14.70;;;8.20;99.90;;;;;;5014026;28;20444;-87
2021/11/18 08:33:30;;;;;;;34.47;14.65;;;8.30;99.90;;;;;;5033112;28;20433;-89
2021/11/18 08:35:56;;;;;;;31.88;14.02;;;8.20;99.90;;;;;;5012098;28;20504;-89
2021/11/18 08:38:26;;;;;;;38.10;15.13;;;8.30;99.90;;;;;;5030256;28;20478;-89
2021/11/18 08:41:06;;;;;;;36.10;15.23;;;8.40;99.90;;;;;;5013251;28;20386;-86
2021/11/18 08:43:34;;;;;;;35.58;15.43;;;8.40;99.90;;;;;;5010788;28;20406;-87
2021/11/18 08:46:01;;;;;;;35.15;15.35;;;8.40;99.90;;;;;;5018082;28;20382;-86
2021/11/18 08:48:27;;;;;;;36.00;14.73;;;8.40;99.90;;;;;;5033449;28;20409;-91
2021/11/18 08:50:53;;;;;;;32.85;14.60;;;8.50;99.90;;;;;;5018080;28;20417;-87
2021/11/18 08:53:22;;;;;;;33.50;15.30;;;8.60;99.90;;;;;;5013850;28;20382;-87
2021/11/18 08:55:48;;;;;;;41.30;16.52;;;8.60;99.90;;;;;;5011416;28;20388;-88
2021/11/18 08:58:17;;;;;;;33.45;15.00;;;8.60;99.90;;;;;;5012221;28;20417;-90
2021/11/18 09:00:58;;;;;;;34.40;15.27;;;8.60;99.90;;;;;;5011469;28;20949;-86
2021/11/18 09:03:27;;;;;;;35.35;15.35;;;8.80;99.90;;;;;;5030560;28;20436;-89
2021/11/18 09:05:53;;;;;;;34.92;14.98;;;8.90;99.90;;;;;;5012511;28;20377;-88
2021/11/18 09:08:19;;;;;;;37.38;14.85;;;9.00;99.90;;;;;;5012417;28;20434;-88
2021/11/18 09:10:47;;;;;;;32.53;15.02;;;9.00;99.90;;;;;;5029428;28;20469;-88
2021/11/18 09:13:14;;;;;;;33.95;14.18;;;9.00;99.90;;;;;;5012012;28;20817;-89
2021/11/18 09:15:44;;;;;;;32.93;14.13;;;9.10;99.90;;;;;;5011778;28;20392;-90
2021/11/18 09:18:10;;;;;;;36.77;14.67;;;9.20;99.90;;;;;;5012342;28;20419;-89
2021/11/18 09:20:37;;;;;;;32.80;14.77;;;9.20;99.90;;;;;;5012047;28;20407;-89
2021/11/18 09:23:03;;;;;;;31.83;14.20;;;9.30;99.90;;;;;;5012519;28;20393;-86
2021/11/18 09:25:36;;;;;;;32.83;14.38;;;9.30;99.90;;;;;;5011172;28;20382;-84
2021/11/18 09:28:20;;;;;;;38.28;14.40;;;9.30;99.90;;;;;;5012368;28;20396;-86
2021/11/18 09:30:49;;;;;;;37.38;13.77;;;9.30;99.90;;;;;;5029277;28;20401;-86
2021/11/18 09:33:20;;;;;;;38.80;14.98;;;9.40;99.90;;;;;;5010814;28;20435;-87
2021/11/18 09:35:52;;;;;;;40.00;14.82;;;9.40;99.90;;;;;;5012102;28;20385;-89
2021/11/18 09:38:21;;;;;;;32.50;13.75;;;9.40;99.90;;;;;;4992166;28;20432;-89
2021/11/18 09:40:48;;;;;;;38.38;13.55;;;9.40;99.90;;;;;;5007361;28;20489;-86
2021/11/18 09:43:52;;;;;;;35.08;13.10;;;9.50;99.90;;;;;;5007359;28;20457;-88
2021/11/18 09:46:35;;;;;;;32.92;12.30;;;9.60;99.90;;;;;;4991648;28;20395;-85
2021/11/18 09:49:38;;;;;;;31.33;13.10;;;9.70;99.90;;;;;;4991215;28;20761;-87
2021/11/18 09:52:42;;;;;;;29.63;12.80;;;9.80;99.90;;;;;;5008038;28;20389;-86
2021/11/18 09:55:19;;;;;;;37.22;12.63;;;10.00;99.90;;;;;;5015397;28;20417;-85
2021/11/18 09:57:59;;;;;;;35.92;12.68;;;10.10;99.90;;;;;;5012096;28;20413;-87
2021/11/18 10:00:30;;;;;;;33.45;12.55;;;10.10;99.90;;;;;;5011230;28;20888;-89
2021/11/18 10:03:29;;;;;;;31.92;12.18;;;10.10;99.90;;;;;;5011687;28;20435;-91
2021/11/18 10:06:24;;;;;;;33.70;13.50;;;10.10;99.90;;;;;;5011188;28;20389;-87
2021/11/18 10:09:18;;;;;;;31.03;13.07;;;10.10;99.90;;;;;;5029703;28;20381;-88
2021/11/18 10:12:13;;;;;;;30.17;13.02;;;10.10;99.90;;;;;;5014694;28;20389;-88
2021/11/18 10:14:52;;;;;;;30.48;13.55;;;10.10;99.90;;;;;;5031993;28;20500;-89
2021/11/18 10:17:21;;;;;;;35.95;14.02;;;10.00;99.90;;;;;;5032488;28;20397;-86
2021/11/18 10:20:11;;;;;;;26.60;12.52;;;10.00;99.90;;;;;;5014874;28;20941;-86
2021/11/18 10:22:53;;;;;;;31.98;13.57;;;10.00;99.90;;;;;;4997236;28;20401;-85
2021/11/18 10:25:32;;;;;;;29.45;12.40;;;10.10;99.90;;;;;;5013987;28;20421;-90
2021/11/18 10:28:21;;;;;;;28.02;11.38;;;10.30;99.90;;;;;;5013565;28;20393;-91
2021/11/18 10:31:16;;;;;;;29.30;11.47;;;10.60;99.90;;;;;;5019540;28;20771;-88
2021/11/18 10:33:59;;;;;;;29.20;11.20;;;10.80;99.90;;;;;;5015572;28;20446;-84
2021/11/18 10:36:34;;;;;;;27.27;11.50;;;11.00;99.90;;;;;;5013970;28;20815;-87
2021/11/18 10:39:18;;;;;;;31.25;12.13;;;10.70;99.90;;;;;;5014577;28;20401;-84
2021/11/18 10:41:56;;;;;;;30.02;11.98;;;10.60;99.90;;;;;;5015508;28;20400;-87
2021/11/18 10:44:42;;;;;;;30.60;11.93;;;10.60;99.90;;;;;;5013810;28;20464;-89
2021/11/18 10:47:15;;;;;;;32.08;12.65;;;10.50;99.90;;;;;;5016468;28;20373;-85
2021/11/18 10:49:58;;;;;;;28.95;11.55;;;10.40;99.90;;;;;;5033491;28;20389;-88
2021/11/18 10:52:32;;;;;;;31.10;12.23;;;10.50;99.90;;;;;;5016417;28;20406;-83
2021/11/18 10:55:08;;;;;;;27.55;11.38;;;10.70;99.90;;;;;;5032543;28;20373;-88
2021/11/18 10:57:35;;;;;;;32.35;11.60;;;10.70;99.90;;;;;;5032201;28;20418;-89
2021/11/18 11:00:21;;;;;;;28.13;11.85;;;10.80;99.90;;;;;;5014587;28;20740;-88
2021/11/18 11:02:47;;;;;;;29.70;11.70;;;10.90;99.90;;;;;;5013388;28;20423;-85
2021/11/18 11:05:25;;;;;;;30.25;10.95;;;11.10;99.90;;;;;;5014369;28;20381;-85
2021/11/18 11:07:53;;;;;;;27.60;10.57;;;11.10;99.90;;;;;;5015522;28;20460;-83
2021/11/18 11:10:24;;;;;;;25.92;10.57;;;11.10;99.90;;;;;;5013738;28;20943;-89
2021/11/18 11:13:03;;;;;;;27.05;10.77;;;11.20;99.90;;;;;;5015558;28;20386;-88
2021/11/18 11:16:06;;;;;;;27.15;10.45;;;11.30;99.90;;;;;;5014237;28;20884;-90
2021/11/18 11:18:46;;;;;;;29.02;10.70;;;11.50;99.90;;;;;;5015954;28;20802;-86
2021/11/18 11:21:32;;;;;;;27.55;10.48;;;11.60;99.90;;;;;;5013380;28;20481;-89
2021/11/18 11:24:19;;;;;;;25.73;9.80;;;11.50;99.90;;;;;;5014016;28;20381;-90
2021/11/18 11:26:50;;;;;;;27.45;10.20;;;11.60;99.90;;;;;;5012946;28;20579;-87
2021/11/18 11:29:28;;;;;;;27.58;10.90;;;11.50;99.90;;;;;;5012988;28;20397;-86
2021/11/18 11:32:06;;;;;;;31.40;10.77;;;11.40;99.90;;;;;;5015700;28;20468;-87
2021/11/18 11:34:51;;;;;;;30.30;11.77;;;11.40;99.90;;;;;;5038971;28;20389;-88
2021/11/18 11:37:29;;;;;;;27.80;10.85;;;11.30;99.90;;;;;;5016234;28;20420;-86
2021/11/18 11:39:55;;;;;;;29.23;10.88;;;11.30;99.90;;;;;;5012636;28;20487;-87
2021/11/18 11:42:52;;;;;;;29.10;11.00;;;11.40;99.90;;;;;;5013922;28;20382;-85
2021/11/18 11:45:22;;;;;;;23.30;10.00;;;11.40;99.90;;;;;;5012266;28;20424;-87
2021/11/18 11:48:08;;;;;;;27.70;10.27;;;11.30;99.90;;;;;;5013578;28;20398;-86
2021/11/18 11:51:05;;;;;;;29.05;10.70;;;11.30;99.90;;;;;;5030725;28;20373;-88
2021/11/18 11:54:11;;;;;;;32.70;11.63;;;11.20;99.90;;;;;;5014389;28;20384;-88
2021/11/18 11:56:40;;;;;;;26.92;10.77;;;11.40;99.90;;;;;;5014854;28;20390;-91
2021/11/18 11:59:12;;;;;;;29.25;10.15;;;11.50;99.90;;;;;;4997876;28;20424;-89
2021/11/18 12:02:04;;;;;;;27.25;10.65;;;11.60;99.90;;;;;;5012919;28;20389;-90
2021/11/18 12:04:47;;;;;;;25.50;10.15;;;11.50;99.90;;;;;;5016479;28;20397;-89
2021/11/18 12:07:35;;;;;;;24.08;9.50;;;11.60;99.90;;;;;;5012464;28;20453;-89
2021/11/18 12:10:05;;;;;;;26.80;10.00;;;11.50;99.90;;;;;;5011765;28;20500;-91
2021/11/18 12:13:01;;;;;;;25.80;10.00;;;11.50;99.90;;;;;;5013297;28;20393;-87
2021/11/18 12:16:36;;;;;;;32.22;10.30;;;11.50;99.90;;;;;;5001937;28;20465;-87
2021/11/18 12:19:24;;;;;;;29.60;10.88;;;11.50;99.90;;;;;;4935711;29;20419;-86
2021/11/18 12:21:51;;;;;;;27.67;10.82;;;11.50;99.90;;;;;;4931025;29;20421;-83
2021/11/18 12:24:23;;;;;;;26.30;10.23;;;11.50;99.90;;;;;;4971207;28;20383;-88
2021/11/18 12:27:21;;;;;;;27.13;11.07;;;11.50;99.90;;;;;;5009479;28;20390;-88
2021/11/18 12:29:50;;;;;;;27.30;10.27;;;11.60;99.90;;;;;;5010140;28;21019;-85
2021/11/18 12:32:15;;;;;;;26.45;9.95;;;11.60;99.90;;;;;;5005784;28;20434;-86
2021/11/18 12:35:00;;;;;;;24.95;10.32;;;11.70;99.90;;;;;;5012695;28;20440;-89
2021/11/18 12:38:00;;;;;;;25.13;10.25;;;11.70;99.90;;;;;;5030150;28;20472;-89
2021/11/18 12:41:19;;;;;;;29.73;10.93;;;11.60;99.90;;;;;;5029701;28;20393;-89
2021/11/18 12:44:06;;;;;;;23.92;10.18;;;11.30;99.90;;;;;;4949463;29;20400;-91
2021/11/18 12:46:50;;;;;;;25.20;10.93;;;11.40;99.90;;;;;;5008935;28;20405;-89
2021/11/18 12:49:22;;;;;;;23.95;9.85;;;11.50;99.90;;;;;;5012270;28;20393;-91
2021/11/18 12:51:56;;;;;;;28.80;11.90;;;11.50;99.90;;;;;;5013249;28;20740;-86
2021/11/18 12:54:28;;;;;;;30.73;10.90;;;11.50;99.90;;;;;;5028581;28;20392;-89